sensor_id;sensor_type;location;lat;lon;timestamp;temperature;humidity
20005;DHT22;69160;45.498;-73.582;2023-05-10T00:01:28;19.50;40.40
20005;DHT22;69160;45.498;-73.582;2023-05-10T00:03:55;19.50;40.40
20005;DHT22;69160;45.498;-73.582;2023-05-10T00:06:21;19.50;40.80
20005;DHT22;69160;45.498;-73.582;2023-05-10T00:08:47;19.50;41.50
20005;DHT22;69160;45.498;-73.582;2023-05-10T00:11:13;19.50;41.00
20005;DHT22;69160;45.498;-73.582;2023-05-10T00:13:39;19.50;41.20
20005;DHT22;69160;45.498;-73.582;2023-05-10T00:16:05;19.50;41.40
20005;DHT22;69160;45.498;-73.582;2023-05-10T00:18:32;19.50;41.60
20005;DHT22;69160;45.498;-73.582;2023-05-10T00:20:58;19.40;41.70
20005;DHT22;69160;45.498;-73.582;2023-05-10T00:23:24;19.50;41.80
20005;DHT22;69160;45.498;-73.582;2023-05-10T00:25:50;19.40;41.80
20005;DHT22;69160;45.498;-73.582;2023-05-10T00:28:16;19.40;41.80
20005;DHT22;69160;45.498;-73.582;2023-05-10T00:30:42;19.40;42.00
20005;DHT22;69160;45.498;-73.582;2023-05-10T00:33:08;19.30;41.60
20005;DHT22;69160;45.498;-73.582;2023-05-10T00:35:35;19.30;41.80
20005;DHT22;69160;45.498;-73.582;2023-05-10T00:38:01;19.30;41.60
20005;DHT22;69160;45.498;-73.582;2023-05-10T00:40:27;19.30;41.60
20005;DHT22;69160;45.498;-73.582;2023-05-10T00:42:54;19.30;42.10
20005;DHT22;69160;45.498;-73.582;2023-05-10T00:45:20;19.20;41.90
20005;DHT22;69160;45.498;-73.582;2023-05-10T00:47:46;19.20;42.10
20005;DHT22;69160;45.498;-73.582;2023-05-10T00:50:14;19.20;42.20
20005;DHT22;69160;45.498;-73.582;2023-05-10T00:52:41;19.20;42.30
20005;DHT22;69160;45.498;-73.582;2023-05-10T00:55:09;19.20;42.20
20005;DHT22;69160;45.498;-73.582;2023-05-10T00:57:38;19.10;41.80
20005;DHT22;69160;45.498;-73.582;2023-05-10T01:00:04;19.00;42.00
20005;DHT22;69160;45.498;-73.582;2023-05-10T01:02:31;19.00;42.00
20005;DHT22;69160;45.498;-73.582;2023-05-10T01:04:57;19.00;42.10
20005;DHT22;69160;45.498;-73.582;2023-05-10T01:07:23;18.90;41.80
20005;DHT22;69160;45.498;-73.582;2023-05-10T01:09:49;18.90;42.10
20005;DHT22;69160;45.498;-73.582;2023-05-10T01:12:15;18.90;42.30
20005;DHT22;69160;45.498;-73.582;2023-05-10T01:14:42;18.90;42.20
20005;DHT22;69160;45.498;-73.582;2023-05-10T01:17:09;19.00;42.40
20005;DHT22;69160;45.498;-73.582;2023-05-10T01:19:36;18.90;42.30
20005;DHT22;69160;45.498;-73.582;2023-05-10T01:22:30;18.90;42.50
20005;DHT22;69160;45.498;-73.582;2023-05-10T01:34:28;18.80;42.80
20005;DHT22;69160;45.498;-73.582;2023-05-10T01:37:06;18.70;42.60
20005;DHT22;69160;45.498;-73.582;2023-05-10T01:39:44;18.70;42.90
20005;DHT22;69160;45.498;-73.582;2023-05-10T01:42:15;18.80;42.80
20005;DHT22;69160;45.498;-73.582;2023-05-10T01:47:37;18.80;42.80
20005;DHT22;69160;45.498;-73.582;2023-05-10T01:50:10;18.90;42.20
20005;DHT22;69160;45.498;-73.582;2023-05-10T01:52:42;18.80;42.30
20005;DHT22;69160;45.498;-73.582;2023-05-10T01:55:19;18.90;42.40
20005;DHT22;69160;45.498;-73.582;2023-05-10T01:57:49;18.90;42.60
20005;DHT22;69160;45.498;-73.582;2023-05-10T02:00:17;18.90;42.60
20005;DHT22;69160;45.498;-73.582;2023-05-10T02:02:47;18.90;42.10
20005;DHT22;69160;45.498;-73.582;2023-05-10T02:05:16;18.90;42.20
20005;DHT22;69160;45.498;-73.582;2023-05-10T02:07:42;18.90;42.20
20005;DHT22;69160;45.498;-73.582;2023-05-10T02:10:10;18.90;42.90
20005;DHT22;69160;45.498;-73.582;2023-05-10T02:12:41;18.90;42.70
20005;DHT22;69160;45.498;-73.582;2023-05-10T02:15:08;18.90;42.80
20005;DHT22;69160;45.498;-73.582;2023-05-10T02:17:36;18.90;43.30
20005;DHT22;69160;45.498;-73.582;2023-05-10T02:20:04;18.90;43.20
20005;DHT22;69160;45.498;-73.582;2023-05-10T02:22:33;18.90;43.30
20005;DHT22;69160;45.498;-73.582;2023-05-10T02:25:00;18.90;43.50
20005;DHT22;69160;45.498;-73.582;2023-05-10T02:27:28;18.90;44.10
20005;DHT22;69160;45.498;-73.582;2023-05-10T02:29:55;18.90;43.80
20005;DHT22;69160;45.498;-73.582;2023-05-10T02:32:25;18.90;43.60
20005;DHT22;69160;45.498;-73.582;2023-05-10T02:34:52;18.90;43.60
20005;DHT22;69160;45.498;-73.582;2023-05-10T02:37:20;18.90;43.60
20005;DHT22;69160;45.498;-73.582;2023-05-10T02:39:50;18.80;43.30
20005;DHT22;69160;45.498;-73.582;2023-05-10T02:42:19;18.80;43.20
20005;DHT22;69160;45.498;-73.582;2023-05-10T02:44:50;18.80;43.10
20005;DHT22;69160;45.498;-73.582;2023-05-10T02:47:17;18.80;43.30
20005;DHT22;69160;45.498;-73.582;2023-05-10T02:49:44;18.80;43.00
20005;DHT22;69160;45.498;-73.582;2023-05-10T02:52:10;18.80;43.00
20005;DHT22;69160;45.498;-73.582;2023-05-10T02:54:44;18.80;42.80
20005;DHT22;69160;45.498;-73.582;2023-05-10T02:57:15;18.80;42.60
20005;DHT22;69160;45.498;-73.582;2023-05-10T02:59:45;18.80;42.50
20005;DHT22;69160;45.498;-73.582;2023-05-10T03:02:14;18.80;42.20
20005;DHT22;69160;45.498;-73.582;2023-05-10T03:04:40;18.80;41.90
20005;DHT22;69160;45.498;-73.582;2023-05-10T03:07:07;18.80;41.80
20005;DHT22;69160;45.498;-73.582;2023-05-10T03:09:34;18.80;41.60
20005;DHT22;69160;45.498;-73.582;2023-05-10T03:20:11;18.70;40.90
20005;DHT22;69160;45.498;-73.582;2023-05-10T03:22:44;18.70;41.00
20005;DHT22;69160;45.498;-73.582;2023-05-10T03:25:11;18.70;40.80
20005;DHT22;69160;45.498;-73.582;2023-05-10T03:27:41;18.70;40.80
20005;DHT22;69160;45.498;-73.582;2023-05-10T03:30:11;18.70;40.70
20005;DHT22;69160;45.498;-73.582;2023-05-10T03:32:37;18.70;40.80
20005;DHT22;69160;45.498;-73.582;2023-05-10T03:35:11;18.70;40.80
20005;DHT22;69160;45.498;-73.582;2023-05-10T03:37:38;18.70;40.60
20005;DHT22;69160;45.498;-73.582;2023-05-10T03:40:05;18.70;40.60
20005;DHT22;69160;45.498;-73.582;2023-05-10T03:42:32;18.70;40.70
20005;DHT22;69160;45.498;-73.582;2023-05-10T03:44:58;18.70;40.70
20005;DHT22;69160;45.498;-73.582;2023-05-10T03:47:24;18.70;40.60
20005;DHT22;69160;45.498;-73.582;2023-05-10T03:49:50;18.70;40.70
20005;DHT22;69160;45.498;-73.582;2023-05-10T03:52:16;18.70;40.60
20005;DHT22;69160;45.498;-73.582;2023-05-10T03:54:43;18.70;41.00
20005;DHT22;69160;45.498;-73.582;2023-05-10T03:57:09;18.70;40.40
20005;DHT22;69160;45.498;-73.582;2023-05-10T03:59:35;18.60;40.50
20005;DHT22;69160;45.498;-73.582;2023-05-10T04:02:01;18.60;40.40
20005;DHT22;69160;45.498;-73.582;2023-05-10T04:04:28;18.60;40.20
20005;DHT22;69160;45.498;-73.582;2023-05-10T04:06:54;18.60;40.40
20005;DHT22;69160;45.498;-73.582;2023-05-10T04:09:20;18.60;40.30
20005;DHT22;69160;45.498;-73.582;2023-05-10T04:11:46;18.60;40.10
20005;DHT22;69160;45.498;-73.582;2023-05-10T04:14:12;18.60;40.00
20005;DHT22;69160;45.498;-73.582;2023-05-10T04:16:38;18.60;39.80
20005;DHT22;69160;45.498;-73.582;2023-05-10T04:19:05;18.60;39.70
20005;DHT22;69160;45.498;-73.582;2023-05-10T04:21:31;18.60;39.50
20005;DHT22;69160;45.498;-73.582;2023-05-10T04:23:57;18.60;39.50
20005;DHT22;69160;45.498;-73.582;2023-05-10T04:26:23;18.50;39.10
20005;DHT22;69160;45.498;-73.582;2023-05-10T04:28:51;18.60;39.50
20005;DHT22;69160;45.498;-73.582;2023-05-10T04:31:17;18.60;39.40
20005;DHT22;69160;45.498;-73.582;2023-05-10T04:33:43;18.60;39.50
20005;DHT22;69160;45.498;-73.582;2023-05-10T04:36:09;18.50;39.30
20005;DHT22;69160;45.498;-73.582;2023-05-10T04:38:36;18.50;39.20
20005;DHT22;69160;45.498;-73.582;2023-05-10T04:41:06;18.50;39.40
20005;DHT22;69160;45.498;-73.582;2023-05-10T04:43:33;18.50;39.30
20005;DHT22;69160;45.498;-73.582;2023-05-10T04:46:00;18.50;39.40
20005;DHT22;69160;45.498;-73.582;2023-05-10T04:48:26;18.50;39.40
20005;DHT22;69160;45.498;-73.582;2023-05-10T04:50:52;18.50;39.20
20005;DHT22;69160;45.498;-73.582;2023-05-10T04:53:18;18.50;39.30
20005;DHT22;69160;45.498;-73.582;2023-05-10T04:55:44;18.50;39.30
20005;DHT22;69160;45.498;-73.582;2023-05-10T04:58:11;18.50;39.30
20005;DHT22;69160;45.498;-73.582;2023-05-10T05:00:38;18.50;39.50
20005;DHT22;69160;45.498;-73.582;2023-05-10T05:03:04;18.50;39.50
20005;DHT22;69160;45.498;-73.582;2023-05-10T05:05:30;18.40;39.60
20005;DHT22;69160;45.498;-73.582;2023-05-10T05:07:56;18.40;39.70
20005;DHT22;69160;45.498;-73.582;2023-05-10T05:10:23;18.40;39.90
20005;DHT22;69160;45.498;-73.582;2023-05-10T05:12:49;18.40;39.80
20005;DHT22;69160;45.498;-73.582;2023-05-10T05:15:15;18.40;39.80
20005;DHT22;69160;45.498;-73.582;2023-05-10T05:17:43;18.40;39.70
20005;DHT22;69160;45.498;-73.582;2023-05-10T05:20:09;18.40;39.60
20005;DHT22;69160;45.498;-73.582;2023-05-10T05:22:37;18.40;39.60
20005;DHT22;69160;45.498;-73.582;2023-05-10T05:25:03;18.40;39.50
20005;DHT22;69160;45.498;-73.582;2023-05-10T05:27:29;18.30;39.30
20005;DHT22;69160;45.498;-73.582;2023-05-10T05:29:56;18.30;39.40
20005;DHT22;69160;45.498;-73.582;2023-05-10T05:32:24;18.30;39.20
20005;DHT22;69160;45.498;-73.582;2023-05-10T05:34:50;18.30;39.20
20005;DHT22;69160;45.498;-73.582;2023-05-10T05:37:19;18.30;39.50
20005;DHT22;69160;45.498;-73.582;2023-05-10T05:39:45;18.30;39.30
20005;DHT22;69160;45.498;-73.582;2023-05-10T05:42:12;18.30;39.10
20005;DHT22;69160;45.498;-73.582;2023-05-10T05:44:39;18.30;39.00
20005;DHT22;69160;45.498;-73.582;2023-05-10T05:47:05;18.30;39.00
20005;DHT22;69160;45.498;-73.582;2023-05-10T05:49:32;18.30;39.00
20005;DHT22;69160;45.498;-73.582;2023-05-10T05:51:59;18.30;39.20
20005;DHT22;69160;45.498;-73.582;2023-05-10T05:54:29;18.30;39.20
20005;DHT22;69160;45.498;-73.582;2023-05-10T05:56:56;18.30;39.30
20005;DHT22;69160;45.498;-73.582;2023-05-10T05:59:23;18.30;39.10
20005;DHT22;69160;45.498;-73.582;2023-05-10T06:01:49;18.20;39.00
20005;DHT22;69160;45.498;-73.582;2023-05-10T06:04:15;18.20;39.10
20005;DHT22;69160;45.498;-73.582;2023-05-10T06:06:42;18.20;39.20
20005;DHT22;69160;45.498;-73.582;2023-05-10T06:09:08;18.20;39.10
20005;DHT22;69160;45.498;-73.582;2023-05-10T06:11:35;18.20;38.80
20005;DHT22;69160;45.498;-73.582;2023-05-10T06:14:02;18.20;38.90
20005;DHT22;69160;45.498;-73.582;2023-05-10T06:16:30;18.20;39.00
20005;DHT22;69160;45.498;-73.582;2023-05-10T06:18:57;18.30;39.20
20005;DHT22;69160;45.498;-73.582;2023-05-10T06:21:23;18.30;39.20
20005;DHT22;69160;45.498;-73.582;2023-05-10T06:23:49;18.20;39.20
20005;DHT22;69160;45.498;-73.582;2023-05-10T06:26:15;18.20;39.20
20005;DHT22;69160;45.498;-73.582;2023-05-10T06:28:41;18.20;39.20
20005;DHT22;69160;45.498;-73.582;2023-05-10T06:31:08;18.20;39.30
20005;DHT22;69160;45.498;-73.582;2023-05-10T06:33:34;18.20;39.20
20005;DHT22;69160;45.498;-73.582;2023-05-10T06:36:00;18.20;39.10
20005;DHT22;69160;45.498;-73.582;2023-05-10T06:38:27;18.20;39.20
20005;DHT22;69160;45.498;-73.582;2023-05-10T06:40:53;18.20;39.30
20005;DHT22;69160;45.498;-73.582;2023-05-10T06:43:19;18.20;39.20
20005;DHT22;69160;45.498;-73.582;2023-05-10T06:45:46;18.20;39.30
20005;DHT22;69160;45.498;-73.582;2023-05-10T06:48:13;18.20;39.50
20005;DHT22;69160;45.498;-73.582;2023-05-10T06:50:39;18.10;39.50
20005;DHT22;69160;45.498;-73.582;2023-05-10T06:53:05;18.10;39.70
20005;DHT22;69160;45.498;-73.582;2023-05-10T06:55:31;18.10;39.70
20005;DHT22;69160;45.498;-73.582;2023-05-10T06:57:57;18.10;39.80
20005;DHT22;69160;45.498;-73.582;2023-05-10T07:00:24;18.10;39.90
20005;DHT22;69160;45.498;-73.582;2023-05-10T07:02:50;18.10;39.80
20005;DHT22;69160;45.498;-73.582;2023-05-10T07:05:16;18.10;39.80
20005;DHT22;69160;45.498;-73.582;2023-05-10T07:07:42;18.10;39.80
20005;DHT22;69160;45.498;-73.582;2023-05-10T07:10:09;18.10;39.70
20005;DHT22;69160;45.498;-73.582;2023-05-10T07:12:35;18.10;39.80
20005;DHT22;69160;45.498;-73.582;2023-05-10T07:15:01;18.10;39.90
20005;DHT22;69160;45.498;-73.582;2023-05-10T07:17:27;18.20;39.90
20005;DHT22;69160;45.498;-73.582;2023-05-10T07:19:54;18.10;39.70
20005;DHT22;69160;45.498;-73.582;2023-05-10T07:22:20;18.10;40.00
20005;DHT22;69160;45.498;-73.582;2023-05-10T07:24:46;18.10;40.40
20005;DHT22;69160;45.498;-73.582;2023-05-10T07:27:12;18.20;40.70
20005;DHT22;69160;45.498;-73.582;2023-05-10T07:29:39;18.20;41.10
20005;DHT22;69160;45.498;-73.582;2023-05-10T07:32:05;18.10;41.50
20005;DHT22;69160;45.498;-73.582;2023-05-10T07:34:31;18.10;41.80
20005;DHT22;69160;45.498;-73.582;2023-05-10T07:37:01;18.10;42.50
20005;DHT22;69160;45.498;-73.582;2023-05-10T07:39:27;18.00;43.10
20005;DHT22;69160;45.498;-73.582;2023-05-10T07:41:54;18.00;43.30
20005;DHT22;69160;45.498;-73.582;2023-05-10T07:44:21;17.90;43.50
20005;DHT22;69160;45.498;-73.582;2023-05-10T07:46:47;17.90;43.80
20005;DHT22;69160;45.498;-73.582;2023-05-10T07:49:14;17.90;44.00
20005;DHT22;69160;45.498;-73.582;2023-05-10T07:51:40;17.90;44.10
20005;DHT22;69160;45.498;-73.582;2023-05-10T07:54:07;17.80;44.30
20005;DHT22;69160;45.498;-73.582;2023-05-10T07:56:33;17.80;44.50
20005;DHT22;69160;45.498;-73.582;2023-05-10T07:59:00;17.70;44.80
20005;DHT22;69160;45.498;-73.582;2023-05-10T08:01:30;17.80;44.70
20005;DHT22;69160;45.498;-73.582;2023-05-10T08:03:58;17.70;44.80
20005;DHT22;69160;45.498;-73.582;2023-05-10T08:06:24;17.70;45.00
20005;DHT22;69160;45.498;-73.582;2023-05-10T08:08:52;17.70;45.40
20005;DHT22;69160;45.498;-73.582;2023-05-10T08:11:23;17.70;45.50
20005;DHT22;69160;45.498;-73.582;2023-05-10T08:13:50;17.70;45.90
20005;DHT22;69160;45.498;-73.582;2023-05-10T08:16:16;17.70;46.10
20005;DHT22;69160;45.498;-73.582;2023-05-10T08:18:44;17.80;46.40
20005;DHT22;69160;45.498;-73.582;2023-05-10T08:21:14;17.80;46.60
20005;DHT22;69160;45.498;-73.582;2023-05-10T08:23:40;17.70;46.60
20005;DHT22;69160;45.498;-73.582;2023-05-10T08:26:06;17.70;46.80
20005;DHT22;69160;45.498;-73.582;2023-05-10T08:28:32;17.80;47.10
20005;DHT22;69160;45.498;-73.582;2023-05-10T08:30:59;17.90;47.20
20005;DHT22;69160;45.498;-73.582;2023-05-10T08:33:25;17.90;47.60
20005;DHT22;69160;45.498;-73.582;2023-05-10T08:35:51;17.90;47.80
20005;DHT22;69160;45.498;-73.582;2023-05-10T08:38:18;17.90;48.00
20005;DHT22;69160;45.498;-73.582;2023-05-10T08:40:44;17.90;48.30
20005;DHT22;69160;45.498;-73.582;2023-05-10T08:43:12;17.90;48.60
20005;DHT22;69160;45.498;-73.582;2023-05-10T08:45:42;17.90;48.70
20005;DHT22;69160;45.498;-73.582;2023-05-10T08:48:10;18.00;48.80
20005;DHT22;69160;45.498;-73.582;2023-05-10T08:50:38;18.00;48.60
20005;DHT22;69160;45.498;-73.582;2023-05-10T08:53:15;17.90;48.60
20005;DHT22;69160;45.498;-73.582;2023-05-10T08:55:42;17.70;48.40
20005;DHT22;69160;45.498;-73.582;2023-05-10T08:58:09;17.70;48.50
20005;DHT22;69160;45.498;-73.582;2023-05-10T09:00:36;17.70;48.50
20005;DHT22;69160;45.498;-73.582;2023-05-10T09:03:05;17.70;48.20
20005;DHT22;69160;45.498;-73.582;2023-05-10T09:05:32;17.70;49.00
20005;DHT22;69160;45.498;-73.582;2023-05-10T09:07:58;17.80;48.90
20005;DHT22;69160;45.498;-73.582;2023-05-10T09:10:28;17.70;49.30
20005;DHT22;69160;45.498;-73.582;2023-05-10T09:12:57;17.90;49.90
20005;DHT22;69160;45.498;-73.582;2023-05-10T09:15:24;18.00;49.10
20005;DHT22;69160;45.498;-73.582;2023-05-10T09:17:50;18.00;49.60
20005;DHT22;69160;45.498;-73.582;2023-05-10T09:20:16;17.70;50.00
20005;DHT22;69160;45.498;-73.582;2023-05-10T09:22:46;17.70;50.00
20005;DHT22;69160;45.498;-73.582;2023-05-10T09:25:15;17.80;49.50
20005;DHT22;69160;45.498;-73.582;2023-05-10T09:27:44;17.70;49.70
20005;DHT22;69160;45.498;-73.582;2023-05-10T09:30:32;17.60;49.60
20005;DHT22;69160;45.498;-73.582;2023-05-10T09:32:58;17.60;49.20
20005;DHT22;69160;45.498;-73.582;2023-05-10T09:35:27;17.60;49.20
20005;DHT22;69160;45.498;-73.582;2023-05-10T09:37:55;17.60;49.00
20005;DHT22;69160;45.498;-73.582;2023-05-10T09:40:24;17.40;49.00
20005;DHT22;69160;45.498;-73.582;2023-05-10T09:42:58;17.20;49.30
20005;DHT22;69160;45.498;-73.582;2023-05-10T09:45:27;17.10;49.50
20005;DHT22;69160;45.498;-73.582;2023-05-10T09:47:54;16.70;49.80
20005;DHT22;69160;45.498;-73.582;2023-05-10T09:50:20;16.60;49.60
20005;DHT22;69160;45.498;-73.582;2023-05-10T09:52:48;16.60;50.00
20005;DHT22;69160;45.498;-73.582;2023-05-10T09:55:15;16.80;49.80
20005;DHT22;69160;45.498;-73.582;2023-05-10T09:57:41;16.80;49.40
20005;DHT22;69160;45.498;-73.582;2023-05-10T10:00:08;16.70;49.20
20005;DHT22;69160;45.498;-73.582;2023-05-10T10:02:35;16.70;49.30
20005;DHT22;69160;45.498;-73.582;2023-05-10T10:05:02;16.80;49.60
20005;DHT22;69160;45.498;-73.582;2023-05-10T10:07:29;17.00;49.70
20005;DHT22;69160;45.498;-73.582;2023-05-10T10:09:55;17.00;49.60
20005;DHT22;69160;45.498;-73.582;2023-05-10T10:12:21;16.80;50.00
20005;DHT22;69160;45.498;-73.582;2023-05-10T10:14:48;16.90;50.40
20005;DHT22;69160;45.498;-73.582;2023-05-10T10:17:16;17.00;50.30
20005;DHT22;69160;45.498;-73.582;2023-05-10T10:19:42;16.90;50.20
20005;DHT22;69160;45.498;-73.582;2023-05-10T10:22:09;16.80;50.20
20005;DHT22;69160;45.498;-73.582;2023-05-10T10:24:39;16.70;50.50
20005;DHT22;69160;45.498;-73.582;2023-05-10T10:35:40;16.60;50.50
20005;DHT22;69160;45.498;-73.582;2023-05-10T10:38:08;16.60;50.40
20005;DHT22;69160;45.498;-73.582;2023-05-10T10:40:35;16.30;50.60
20005;DHT22;69160;45.498;-73.582;2023-05-10T10:43:29;16.30;50.60
20005;DHT22;69160;45.498;-73.582;2023-05-10T10:46:15;16.30;50.50
20005;DHT22;69160;45.498;-73.582;2023-05-10T10:48:52;16.20;50.20
20005;DHT22;69160;45.498;-73.582;2023-05-10T10:51:37;16.30;50.20
20005;DHT22;69160;45.498;-73.582;2023-05-10T10:54:10;16.30;50.30
20005;DHT22;69160;45.498;-73.582;2023-05-10T10:56:37;16.30;50.30
20005;DHT22;69160;45.498;-73.582;2023-05-10T10:59:03;16.20;50.50
20005;DHT22;69160;45.498;-73.582;2023-05-10T11:01:33;16.10;50.60
20005;DHT22;69160;45.498;-73.582;2023-05-10T11:06:33;16.20;50.60
20005;DHT22;69160;45.498;-73.582;2023-05-10T11:09:10;16.20;50.60
20005;DHT22;69160;45.498;-73.582;2023-05-10T11:11:48;16.20;50.70
20005;DHT22;69160;45.498;-73.582;2023-05-10T11:14:20;16.30;50.70
20005;DHT22;69160;45.498;-73.582;2023-05-10T11:16:48;16.10;50.80
20005;DHT22;69160;45.498;-73.582;2023-05-10T11:19:16;16.10;51.00
20005;DHT22;69160;45.498;-73.582;2023-05-10T11:24:30;16.10;50.50
20005;DHT22;69160;45.498;-73.582;2023-05-10T11:26:56;16.20;50.20
20005;DHT22;69160;45.498;-73.582;2023-05-10T11:29:22;16.30;50.30
20005;DHT22;69160;45.498;-73.582;2023-05-10T11:31:51;16.40;50.10
20005;DHT22;69160;45.498;-73.582;2023-05-10T11:34:29;16.40;50.40
20005;DHT22;69160;45.498;-73.582;2023-05-10T11:37:01;16.40;50.70
20005;DHT22;69160;45.498;-73.582;2023-05-10T11:39:29;16.40;51.00
20005;DHT22;69160;45.498;-73.582;2023-05-10T11:41:56;16.60;51.00
20005;DHT22;69160;45.498;-73.582;2023-05-10T11:44:23;16.50;50.90
20005;DHT22;69160;45.498;-73.582;2023-05-10T11:46:49;16.50;51.60
20005;DHT22;69160;45.498;-73.582;2023-05-10T11:49:15;16.50;51.10
20005;DHT22;69160;45.498;-73.582;2023-05-10T11:51:41;16.40;51.40
20005;DHT22;69160;45.498;-73.582;2023-05-10T11:54:11;16.50;51.40
20005;DHT22;69160;45.498;-73.582;2023-05-10T11:56:39;16.60;51.50
20005;DHT22;69160;45.498;-73.582;2023-05-10T11:59:05;16.80;52.00
20005;DHT22;69160;45.498;-73.582;2023-05-10T12:01:32;17.00;51.60
20005;DHT22;69160;45.498;-73.582;2023-05-10T12:03:59;16.80;51.10
20005;DHT22;69160;45.498;-73.582;2023-05-10T12:06:27;16.80;51.20
20005;DHT22;69160;45.498;-73.582;2023-05-10T12:08:54;16.60;51.10
20005;DHT22;69160;45.498;-73.582;2023-05-10T12:11:25;16.60;51.20
20005;DHT22;69160;45.498;-73.582;2023-05-10T12:13:51;16.40;50.70
20005;DHT22;69160;45.498;-73.582;2023-05-10T12:16:24;16.40;50.50
20005;DHT22;69160;45.498;-73.582;2023-05-10T12:18:52;16.60;51.20
20005;DHT22;69160;45.498;-73.582;2023-05-10T12:21:22;16.90;52.00
20005;DHT22;69160;45.498;-73.582;2023-05-10T12:23:51;17.20;51.70
20005;DHT22;69160;45.498;-73.582;2023-05-10T12:26:17;17.30;51.50
20005;DHT22;69160;45.498;-73.582;2023-05-10T12:28:44;17.30;51.00
20005;DHT22;69160;45.498;-73.582;2023-05-10T12:31:10;17.40;51.20
20005;DHT22;69160;45.498;-73.582;2023-05-10T12:33:41;17.60;52.70
20005;DHT22;69160;45.498;-73.582;2023-05-10T12:36:12;18.20;53.70
20005;DHT22;69160;45.498;-73.582;2023-05-10T12:38:40;18.60;54.40
20005;DHT22;69160;45.498;-73.582;2023-05-10T12:41:11;18.80;54.30
20005;DHT22;69160;45.498;-73.582;2023-05-10T12:43:38;19.10;58.20
20005;DHT22;69160;45.498;-73.582;2023-05-10T12:46:11;19.30;61.70
20005;DHT22;69160;45.498;-73.582;2023-05-10T12:48:39;19.40;67.50
20005;DHT22;69160;45.498;-73.582;2023-05-10T12:51:06;19.50;64.20
20005;DHT22;69160;45.498;-73.582;2023-05-10T12:53:35;19.50;61.90
20005;DHT22;69160;45.498;-73.582;2023-05-10T12:56:02;19.50;60.20
20005;DHT22;69160;45.498;-73.582;2023-05-10T12:58:28;19.50;60.10
20005;DHT22;69160;45.498;-73.582;2023-05-10T13:00:54;19.50;59.20
20005;DHT22;69160;45.498;-73.582;2023-05-10T13:03:22;19.50;58.40
20005;DHT22;69160;45.498;-73.582;2023-05-10T13:05:48;19.50;57.90
20005;DHT22;69160;45.498;-73.582;2023-05-10T13:08:14;19.50;57.80
20005;DHT22;69160;45.498;-73.582;2023-05-10T13:10:41;19.50;57.50
20005;DHT22;69160;45.498;-73.582;2023-05-10T13:13:07;19.50;56.00
20005;DHT22;69160;45.498;-73.582;2023-05-10T13:15:34;19.50;56.40
20005;DHT22;69160;45.498;-73.582;2023-05-10T13:18:00;19.60;56.20
20005;DHT22;69160;45.498;-73.582;2023-05-10T13:20:26;19.60;55.90
20005;DHT22;69160;45.498;-73.582;2023-05-10T13:22:53;19.60;55.40
20005;DHT22;69160;45.498;-73.582;2023-05-10T13:25:19;19.50;54.60
20005;DHT22;69160;45.498;-73.582;2023-05-10T13:27:45;19.60;54.60
20005;DHT22;69160;45.498;-73.582;2023-05-10T13:30:12;19.60;54.20
20005;DHT22;69160;45.498;-73.582;2023-05-10T13:32:38;19.60;55.20
20005;DHT22;69160;45.498;-73.582;2023-05-10T13:35:04;19.70;54.30
20005;DHT22;69160;45.498;-73.582;2023-05-10T13:37:31;19.70;55.60
20005;DHT22;69160;45.498;-73.582;2023-05-10T13:40:01;19.70;56.40
20005;DHT22;69160;45.498;-73.582;2023-05-10T13:42:27;19.70;55.10
20005;DHT22;69160;45.498;-73.582;2023-05-10T13:44:53;19.70;54.80
20005;DHT22;69160;45.498;-73.582;2023-05-10T13:47:20;19.70;54.10
20005;DHT22;69160;45.498;-73.582;2023-05-10T13:49:47;19.70;54.20
20005;DHT22;69160;45.498;-73.582;2023-05-10T13:52:13;19.70;54.20
20005;DHT22;69160;45.498;-73.582;2023-05-10T13:54:39;19.70;54.20
20005;DHT22;69160;45.498;-73.582;2023-05-10T13:57:06;19.70;54.20
20005;DHT22;69160;45.498;-73.582;2023-05-10T13:59:32;19.80;53.30
20005;DHT22;69160;45.498;-73.582;2023-05-10T14:01:59;19.80;53.10
20005;DHT22;69160;45.498;-73.582;2023-05-10T14:04:28;19.80;53.50
20005;DHT22;69160;45.498;-73.582;2023-05-10T14:06:55;19.90;53.30
20005;DHT22;69160;45.498;-73.582;2023-05-10T14:09:21;19.90;53.10
20005;DHT22;69160;45.498;-73.582;2023-05-10T14:11:47;19.90;53.10
20005;DHT22;69160;45.498;-73.582;2023-05-10T14:14:13;19.90;53.00
20005;DHT22;69160;45.498;-73.582;2023-05-10T14:16:44;20.00;53.10
20005;DHT22;69160;45.498;-73.582;2023-05-10T14:19:10;20.00;53.10
20005;DHT22;69160;45.498;-73.582;2023-05-10T14:21:37;20.00;53.10
20005;DHT22;69160;45.498;-73.582;2023-05-10T14:24:04;20.00;53.00
20005;DHT22;69160;45.498;-73.582;2023-05-10T14:26:30;20.00;53.00
20005;DHT22;69160;45.498;-73.582;2023-05-10T14:28:56;20.00;53.30
20005;DHT22;69160;45.498;-73.582;2023-05-10T14:31:23;20.10;53.40
20005;DHT22;69160;45.498;-73.582;2023-05-10T14:33:51;20.20;55.30
20005;DHT22;69160;45.498;-73.582;2023-05-10T14:36:17;20.30;54.90
20005;DHT22;69160;45.498;-73.582;2023-05-10T14:38:44;20.40;53.20
20005;DHT22;69160;45.498;-73.582;2023-05-10T14:41:10;20.40;55.20
20005;DHT22;69160;45.498;-73.582;2023-05-10T14:43:40;20.40;54.00
20005;DHT22;69160;45.498;-73.582;2023-05-10T14:46:06;20.30;53.70
20005;DHT22;69160;45.498;-73.582;2023-05-10T14:48:33;20.30;53.70
20005;DHT22;69160;45.498;-73.582;2023-05-10T14:50:59;20.30;53.60
20005;DHT22;69160;45.498;-73.582;2023-05-10T14:53:25;20.30;54.10
20005;DHT22;69160;45.498;-73.582;2023-05-10T14:55:51;20.30;54.40
20005;DHT22;69160;45.498;-73.582;2023-05-10T14:58:17;20.30;54.00
20005;DHT22;69160;45.498;-73.582;2023-05-10T15:00:44;20.30;53.90
20005;DHT22;69160;45.498;-73.582;2023-05-10T15:03:10;20.30;53.80
20005;DHT22;69160;45.498;-73.582;2023-05-10T15:05:36;20.30;53.80
20005;DHT22;69160;45.498;-73.582;2023-05-10T15:08:03;20.30;53.50
20005;DHT22;69160;45.498;-73.582;2023-05-10T15:10:31;20.40;53.30
20005;DHT22;69160;45.498;-73.582;2023-05-10T15:12:58;20.40;53.10
20005;DHT22;69160;45.498;-73.582;2023-05-10T15:15:24;20.40;53.00
20005;DHT22;69160;45.498;-73.582;2023-05-10T15:17:51;20.40;52.80
20005;DHT22;69160;45.498;-73.582;2023-05-10T15:20:17;20.40;52.50
20005;DHT22;69160;45.498;-73.582;2023-05-10T15:22:43;20.40;52.60
20005;DHT22;69160;45.498;-73.582;2023-05-10T15:25:09;20.40;52.80
20005;DHT22;69160;45.498;-73.582;2023-05-10T15:27:35;20.50;52.30
20005;DHT22;69160;45.498;-73.582;2023-05-10T15:30:02;20.50;52.20
20005;DHT22;69160;45.498;-73.582;2023-05-10T15:32:28;20.50;52.30
20005;DHT22;69160;45.498;-73.582;2023-05-10T15:34:57;20.50;52.20
20005;DHT22;69160;45.498;-73.582;2023-05-10T15:37:23;20.50;52.00
20005;DHT22;69160;45.498;-73.582;2023-05-10T15:39:50;20.60;52.30